Time;durP1;ratioP1;P1;durP2;ratioP2;P2;SDS_P1;SDS_P2;PMS_P1;PMS_P2;Temp;Humidity;BMP_temperature;BMP_pressure;BME280_temperature;BME280_humidity;BME280_pressure;Samples;Min_cycle;Max_cycle;Signal;HPM_P1;HPM_P2
2024/02/13 00:00:10;;;;;;;0.10;0.10;;;6.20;99.90;;;;;;5084555;28;20024;-78
2024/02/13 00:02:39;;;;;;;0.10;0.10;;;6.30;99.90;;;;;;5075393;28;20035;-78
2024/02/13 00:05:07;;;;;;;0.05;0.05;;;6.20;99.90;;;;;;5077116;28;20024;-77
2024/02/13 00:07:38;;;;;;;0.10;0.10;;;6.20;99.90;;;;;;5086194;28;20031;-78
2024/02/13 00:10:09;;;;;;;0.10;0.10;;;6.20;99.90;;;;;;5069785;28;20027;-79
2024/02/13 00:12:35;;;;;;;0.08;0.08;;;6.10;99.90;;;;;;5068232;28;20060;-78
2024/02/13 00:15:00;;;;;;;0.10;0.10;;;6.20;99.90;;;;;;5076247;28;20048;-78
2024/02/13 00:17:27;;;;;;;0.10;0.10;;;6.20;99.90;;;;;;5069791;28;20029;-78
2024/02/13 00:19:55;;;;;;;0.10;0.10;;;6.20;99.90;;;;;;5083486;28;20032;-78
2024/02/13 00:22:21;;;;;;;0.10;0.10;;;6.20;99.90;;;;;;5069658;28;20035;-78
2024/02/13 00:24:48;;;;;;;0.10;0.10;;;6.10;99.90;;;;;;5073383;28;20033;-79
2024/02/13 00:27:15;;;;;;;0.10;0.10;;;6.20;99.90;;;;;;5077342;28;20028;-78
2024/02/13 00:29:40;;;;;;;0.10;0.10;;;6.20;99.90;;;;;;5076842;28;20067;-78
2024/02/13 00:32:06;;;;;;;0.07;0.07;;;6.20;99.90;;;;;;5073550;28;20052;-77
2024/02/13 00:34:32;;;;;;;0.10;0.10;;;6.10;99.90;;;;;;5079932;28;20028;-80
2024/02/13 00:37:00;;;;;;;0.20;0.20;;;6.20;99.90;;;;;;5080828;28;20601;-80
2024/02/13 00:39:26;;;;;;;0.00;0.00;;;6.10;99.90;;;;;;5080793;28;20056;-80
2024/02/13 00:41:54;;;;;;;3.63;3.25;;;6.10;99.90;;;;;;5072854;28;20029;-81
2024/02/13 00:44:21;;;;;;;0.10;0.10;;;6.10;99.90;;;;;;5072722;28;20043;-81
2024/02/13 00:46:48;;;;;;;0.10;0.10;;;6.10;99.90;;;;;;5081604;28;20487;-80
2024/02/13 00:49:14;;;;;;;6.97;2.63;;;6.00;99.90;;;;;;5082064;28;20101;-79
2024/02/13 00:51:43;;;;;;;0.30;0.30;;;6.00;99.90;;;;;;5077069;28;20072;-80
2024/02/13 00:54:13;;;;;;;0.35;0.35;;;6.00;99.90;;;;;;5083564;28;20647;-80
2024/02/13 00:56:39;;;;;;;0.00;0.00;;;6.00;99.90;;;;;;5088119;28;20067;-79
2024/02/13 00:59:07;;;;;;;0.70;0.70;;;6.00;99.90;;;;;;5084527;28;20039;-80
2024/02/13 01:01:34;;;;;;;0.10;0.10;;;6.10;99.90;;;;;;5082826;28;20032;-80
2024/02/13 01:04:00;;;;;;;;;;;6.00;99.90;;;;;;5087345;28;20097;-80
2024/02/13 01:06:27;;;;;;;0.37;0.37;;;6.10;99.90;;;;;;5084788;28;19912;-78
2024/02/13 01:08:52;;;;;;;;;;;6.10;99.90;;;;;;5089465;28;20282;-79
2024/02/13 01:11:18;;;;;;;0.10;0.10;;;6.00;99.90;;;;;;5083566;28;19911;-78
2024/02/13 01:13:44;;;;;;;0.10;0.10;;;5.90;99.90;;;;;;5085465;28;20025;-78
2024/02/13 01:16:10;;;;;;;0.60;0.60;;;5.80;99.90;;;;;;5088991;28;20043;-79
2024/02/13 01:18:35;;;;;;;0.10;0.10;;;5.80;99.90;;;;;;5087971;28;20500;-79
2024/02/13 01:21:03;;;;;;;0.00;0.00;;;5.60;99.90;;;;;;5078857;28;20519;-79
2024/02/13 01:23:29;;;;;;;0.15;0.15;;;5.60;99.90;;;;;;5080259;28;20082;-79
2024/02/13 01:25:56;;;;;;;0.10;0.10;;;5.60;99.90;;;;;;5088295;28;20036;-79
2024/02/13 01:28:22;;;;;;;0.10;0.10;;;5.60;99.90;;;;;;5085336;28;20020;-79
2024/02/13 01:30:48;;;;;;;0.10;0.10;;;5.60;99.90;;;;;;5083460;28;20025;-78
2024/02/13 01:33:13;;;;;;;0.10;0.10;;;5.60;99.90;;;;;;5083442;28;20024;-79
2024/02/13 01:35:42;;;;;;;0.05;0.05;;;5.60;99.90;;;;;;5088421;28;20104;-79
2024/02/13 01:38:09;;;;;;;0.40;0.40;;;5.50;99.90;;;;;;5085857;28;20149;-79
2024/02/13 01:40:36;;;;;;;0.20;0.20;;;5.40;99.90;;;;;;5089158;28;20047;-79
2024/02/13 01:43:02;;;;;;;0.10;0.10;;;5.30;99.90;;;;;;5083027;28;20035;-79
2024/02/13 01:45:28;;;;;;;0.10;0.10;;;5.20;99.90;;;;;;5088879;28;20039;-77
2024/02/13 01:47:55;;;;;;;0.10;0.10;;;5.10;99.90;;;;;;5081701;28;20024;-79
2024/02/13 01:50:21;;;;;;;;;;;5.10;99.90;;;;;;5088205;28;20020;-78
2024/02/13 01:52:51;;;;;;;0.10;0.10;;;5.00;99.90;;;;;;5077979;28;19912;-79
2024/02/13 01:55:19;;;;;;;0.05;0.05;;;4.80;99.90;;;;;;5082761;28;20063;-79
2024/02/13 01:57:48;;;;;;;0.20;0.20;;;4.70;99.90;;;;;;5078904;28;20060;-78
2024/02/13 02:00:14;;;;;;;0.10;0.10;;;4.70;99.90;;;;;;5086795;28;20032;-78
2024/02/13 02:02:45;;;;;;;0.10;0.10;;;4.60;99.90;;;;;;5085060;28;20028;-77
2024/02/13 02:05:11;;;;;;;0.10;0.10;;;4.60;99.90;;;;;;5087073;28;20438;-78
2024/02/13 02:07:43;;;;;;;0.10;0.10;;;4.60;99.90;;;;;;5080769;28;20073;-78
2024/02/13 02:10:09;;;;;;;0.10;0.10;;;4.50;99.90;;;;;;5082594;28;20784;-79
2024/02/13 02:12:39;;;;;;;0.10;0.10;;;4.70;99.90;;;;;;5086500;28;20032;-79
2024/02/13 02:15:06;;;;;;;0.05;0.05;;;4.80;99.90;;;;;;5078307;28;20036;-79
2024/02/13 02:17:32;;;;;;;0.10;0.10;;;4.70;99.90;;;;;;5082731;28;20119;-79
2024/02/13 02:19:58;;;;;;;0.10;0.10;;;4.80;99.90;;;;;;5082388;28;20140;-78
2024/02/13 02:22:24;;;;;;;0.10;0.10;;;4.70;99.90;;;;;;5085019;28;20032;-78
2024/02/13 02:24:50;;;;;;;0.10;0.10;;;4.70;99.90;;;;;;5078425;28;20033;-78
2024/02/13 02:27:16;;;;;;;0.10;0.10;;;4.70;99.90;;;;;;5078782;28;20030;-79
2024/02/13 02:29:42;;;;;;;0.10;0.10;;;4.70;99.90;;;;;;5077858;28;20107;-77
2024/02/13 02:32:09;;;;;;;0.10;0.10;;;4.60;99.90;;;;;;5082748;28;20146;-77
2024/02/13 02:34:35;;;;;;;1.45;0.75;;;4.50;99.90;;;;;;5078777;28;20073;-79
2024/02/13 02:37:01;;;;;;;0.10;0.10;;;4.50;99.90;;;;;;5080021;28;20032;-80
2024/02/13 02:39:27;;;;;;;0.10;0.10;;;4.60;99.90;;;;;;5077147;28;20142;-79
2024/02/13 02:41:53;;;;;;;0.10;0.10;;;4.60;99.90;;;;;;5080814;28;20031;-79
2024/02/13 02:44:19;;;;;;;0.10;0.10;;;4.60;99.90;;;;;;5086590;28;20097;-80
2024/02/13 02:46:48;;;;;;;0.10;0.10;;;4.60;99.90;;;;;;5086293;28;20081;-80
2024/02/13 02:49:15;;;;;;;0.10;0.10;;;4.60;99.90;;;;;;5082554;28;20027;-79
2024/02/13 02:51:42;;;;;;;0.10;0.10;;;4.40;99.90;;;;;;5080370;28;20016;-80
2024/02/13 02:54:08;;;;;;;0.10;0.10;;;4.50;99.90;;;;;;5080910;28;20059;-80
2024/02/13 02:56:36;;;;;;;0.10;0.10;;;4.50;99.90;;;;;;5084891;28;20091;-80
2024/02/13 02:59:03;;;;;;;0.10;0.10;;;4.50;99.90;;;;;;5087576;28;20035;-80
2024/02/13 03:01:29;;;;;;;0.10;0.10;;;4.40;99.90;;;;;;5085983;28;20085;-79
2024/02/13 03:03:56;;;;;;;0.10;0.10;;;4.30;99.90;;;;;;5087564;28;20542;-79
2024/02/13 03:06:22;;;;;;;0.10;0.10;;;4.20;99.90;;;;;;5085349;28;20024;-79
2024/02/13 03:08:49;;;;;;;0.10;0.10;;;4.20;99.90;;;;;;5086776;28;20043;-78
2024/02/13 03:11:15;;;;;;;0.10;0.10;;;4.20;99.90;;;;;;5081787;28;20403;-78
2024/02/13 03:13:41;;;;;;;0.10;0.10;;;4.20;99.90;;;;;;5087700;28;20093;-78
2024/02/13 03:16:07;;;;;;;0.10;0.10;;;4.10;99.90;;;;;;5082203;28;20093;-79
2024/02/13 03:18:34;;;;;;;0.50;0.50;;;4.10;99.90;;;;;;5083178;28;21073;-78
2024/02/13 03:20:59;;;;;;;0.10;0.10;;;4.00;99.90;;;;;;5084424;28;20114;-78
2024/02/13 03:23:25;;;;;;;0.10;0.10;;;4.00;99.90;;;;;;5087419;28;20741;-79
2024/02/13 03:25:50;;;;;;;0.20;0.20;;;4.00;99.90;;;;;;5086105;28;20036;-78
2024/02/13 03:28:16;;;;;;;0.10;0.10;;;4.00;99.90;;;;;;5079087;28;20020;-78
2024/02/13 03:30:43;;;;;;;0.10;0.10;;;3.90;99.90;;;;;;5082522;28;20024;-78
2024/02/13 03:33:08;;;;;;;0.10;0.10;;;3.90;99.90;;;;;;5082638;28;20032;-79
2024/02/13 03:35:34;;;;;;;0.10;0.10;;;3.90;99.90;;;;;;5079226;28;20613;-78
2024/02/13 03:37:59;;;;;;;0.10;0.10;;;3.90;99.90;;;;;;5080288;28;20864;-78
2024/02/13 03:40:25;;;;;;;0.65;0.57;;;3.80;99.90;;;;;;5082607;28;20020;-78
2024/02/13 03:42:51;;;;;;;4.85;1.45;;;3.90;99.90;;;;;;5077266;28;20027;-78
2024/02/13 03:45:17;;;;;;;0.10;0.10;;;3.90;99.90;;;;;;5077030;28;20491;-78
2024/02/13 03:47:43;;;;;;;0.10;0.10;;;4.00;99.90;;;;;;5080113;28;20036;-78
2024/02/13 03:50:09;;;;;;;0.40;0.40;;;4.00;99.90;;;;;;5079640;28;20115;-78
2024/02/13 03:52:36;;;;;;;0.20;0.20;;;3.90;99.90;;;;;;5084373;28;20024;-79
2024/02/13 03:55:04;;;;;;;0.20;0.20;;;3.90;99.90;;;;;;5079495;28;20031;-79
2024/02/13 03:57:30;;;;;;;0.10;0.10;;;3.90;99.90;;;;;;5080387;28;20046;-78
2024/02/13 03:59:56;;;;;;;0.10;0.10;;;3.90;99.90;;;;;;5081766;28;20040;-78
2024/02/13 04:02:22;;;;;;;0.10;0.10;;;4.10;99.90;;;;;;5079148;28;20047;-79
2024/02/13 04:04:48;;;;;;;0.10;0.10;;;4.10;99.90;;;;;;5083081;28;20052;-77
2024/02/13 04:07:13;;;;;;;0.10;0.10;;;4.20;99.90;;;;;;5080197;28;20135;-77
2024/02/13 04:09:39;;;;;;;0.10;0.10;;;4.10;99.90;;;;;;5081941;28;20078;-78
2024/02/13 04:12:05;;;;;;;0.10;0.10;;;4.10;99.90;;;;;;5083752;28;20103;-78
2024/02/13 04:14:32;;;;;;;0.10;0.10;;;4.10;99.90;;;;;;5075481;28;20601;-78
2024/02/13 04:16:58;;;;;;;0.10;0.10;;;4.20;99.90;;;;;;5084991;28;20036;-78
2024/02/13 04:19:23;;;;;;;0.10;0.10;;;4.10;99.90;;;;;;5084892;28;20088;-78
2024/02/13 04:21:49;;;;;;;0.10;0.10;;;4.00;99.90;;;;;;5084337;28;20032;-77
2024/02/13 04:24:15;;;;;;;0.10;0.10;;;3.90;99.90;;;;;;5080578;28;20016;-78
2024/02/13 04:26:42;;;;;;;0.10;0.10;;;3.90;99.90;;;;;;5086120;28;20027;-78
2024/02/13 04:29:08;;;;;;;0.10;0.10;;;4.00;99.90;;;;;;5089349;28;20581;-78
2024/02/13 04:31:35;;;;;;;0.32;0.32;;;3.80;99.90;;;;;;5089700;28;20111;-79
2024/02/13 04:34:00;;;;;;;0.10;0.10;;;3.90;99.90;;;;;;5087580;28;20074;-78
2024/02/13 04:36:27;;;;;;;0.08;0.08;;;3.90;99.90;;;;;;5075222;28;20056;-79
2024/02/13 04:38:52;;;;;;;0.10;0.10;;;3.80;99.90;;;;;;5076972;28;20028;-79
2024/02/13 04:41:18;;;;;;;0.10;0.10;;;3.90;99.90;;;;;;5085508;28;20270;-79
2024/02/13 04:43:44;;;;;;;0.30;0.30;;;3.80;99.90;;;;;;5089831;28;20043;-80
2024/02/13 04:46:10;;;;;;;0.10;0.10;;;3.70;99.90;;;;;;5086061;28;20021;-80
2024/02/13 04:48:37;;;;;;;0.10;0.10;;;3.70;99.90;;;;;;5087174;28;20054;-79
2024/02/13 04:51:04;;;;;;;;;;;3.60;99.90;;;;;;5091249;28;20085;-79
2024/02/13 04:53:31;;;;;;;0.10;0.10;;;3.50;99.90;;;;;;5089017;28;20281;-79
2024/02/13 04:55:57;;;;;;;0.10;0.10;;;3.40;99.90;;;;;;5085549;28;20076;-79
2024/02/13 04:58:23;;;;;;;0.10;0.10;;;3.30;99.90;;;;;;5090108;28;20075;-78
2024/02/13 05:01:01;;;;;;;0.10;0.10;;;3.20;99.90;;;;;;5089677;28;20121;-79
2024/02/13 05:03:39;;;;;;;0.10;0.10;;;3.20;99.90;;;;;;5082413;28;20028;-79
2024/02/13 05:08:53;;;;;;;0.10;0.10;;;3.20;99.90;;;;;;5083496;28;20036;-80
2024/02/13 05:11:19;;;;;;;0.10;0.10;;;3.20;99.90;;;;;;5088073;28;20107;-79
2024/02/13 05:13:45;;;;;;;0.10;0.10;;;3.30;99.90;;;;;;5084842;28;20028;-79
2024/02/13 05:16:11;;;;;;;0.10;0.10;;;3.30;99.90;;;;;;5081422;28;20050;-79
2024/02/13 05:18:38;;;;;;;0.10;0.10;;;3.30;99.90;;;;;;5084968;28;20089;-79
2024/02/13 05:21:05;;;;;;;0.10;0.10;;;3.30;99.90;;;;;;5078097;28;20028;-78
2024/02/13 05:23:30;;;;;;;1.20;0.88;;;3.40;99.90;;;;;;5087523;28;20028;-80
2024/02/13 05:25:57;;;;;;;0.10;0.10;;;3.40;99.90;;;;;;5089786;28;20043;-79
2024/02/13 05:28:23;;;;;;;0.05;0.05;;;3.30;99.90;;;;;;5083287;28;20019;-80
2024/02/13 05:30:49;;;;;;;0.10;0.10;;;3.30;99.90;;;;;;5084361;28;20038;-80
2024/02/13 05:33:15;;;;;;;0.10;0.10;;;3.40;99.90;;;;;;5078856;28;20073;-77
2024/02/13 05:35:44;;;;;;;0.10;0.10;;;3.30;99.90;;;;;;5082594;28;20024;-81
2024/02/13 05:38:09;;;;;;;0.10;0.10;;;3.30;99.90;;;;;;5083297;28;20060;-80
2024/02/13 05:40:38;;;;;;;0.10;0.10;;;3.30;99.90;;;;;;5088489;28;20050;-79
2024/02/13 05:43:06;;;;;;;0.10;0.10;;;3.20;99.90;;;;;;5088075;28;20020;-78
2024/02/13 05:45:31;;;;;;;0.10;0.10;;;3.20;99.90;;;;;;5083080;28;20066;-79
2024/02/13 05:47:57;;;;;;;0.10;0.10;;;3.20;99.90;;;;;;5083445;28;20508;-79
2024/02/13 05:50:23;;;;;;;0.10;0.10;;;3.20;99.90;;;;;;5076212;28;20197;-78
2024/02/13 05:52:49;;;;;;;0.10;0.10;;;3.30;99.90;;;;;;5086031;28;20028;-80
2024/02/13 05:55:16;;;;;;;0.10;0.10;;;3.20;99.90;;;;;;5083275;28;20249;-81
2024/02/13 05:57:41;;;;;;;0.10;0.10;;;3.20;99.90;;;;;;5077975;28;20039;-80
2024/02/13 06:00:09;;;;;;;0.10;0.10;;;3.20;99.90;;;;;;5086869;28;20031;-82
2024/02/13 06:02:36;;;;;;;0.10;0.10;;;3.20;99.90;;;;;;5076395;28;20577;-81
2024/02/13 06:05:02;;;;;;;0.20;0.20;;;3.20;99.90;;;;;;5073675;28;20074;-82
2024/02/13 06:07:28;;;;;;;0.10;0.10;;;3.30;99.90;;;;;;5075625;28;20036;-81
2024/02/13 06:09:54;;;;;;;0.10;0.10;;;3.30;99.90;;;;;;5080462;28;20274;-82
2024/02/13 06:12:20;;;;;;;0.10;0.10;;;3.30;99.90;;;;;;5084145;28;20020;-82
2024/02/13 06:14:47;;;;;;;0.10;0.10;;;3.20;99.90;;;;;;5078631;28;20093;-84
2024/02/13 06:17:12;;;;;;;;;;;3.30;99.90;;;;;;5085477;28;20016;-82
2024/02/13 06:19:38;;;;;;;0.10;0.10;;;3.30;99.90;;;;;;5084384;28;20027;-83
2024/02/13 06:22:03;;;;;;;0.10;0.10;;;3.20;99.90;;;;;;5083417;28;20051;-82
2024/02/13 06:24:29;;;;;;;0.10;0.10;;;3.20;99.90;;;;;;5081381;28;20039;-82
2024/02/13 06:26:55;;;;;;;0.10;0.10;;;3.30;99.90;;;;;;5070733;28;20035;-84
2024/02/13 06:29:21;;;;;;;0.10;0.10;;;3.30;99.90;;;;;;5079710;28;20106;-85
2024/02/13 06:31:47;;;;;;;0.10;0.10;;;3.20;99.90;;;;;;5081398;28;20561;-83
2024/02/13 06:34:16;;;;;;;0.10;0.10;;;3.20;99.90;;;;;;5076989;28;20632;-84
2024/02/13 06:36:42;;;;;;;0.10;0.10;;;3.10;99.90;;;;;;5082799;28;20024;-83
2024/02/13 06:39:07;;;;;;;0.10;0.10;;;3.10;99.90;;;;;;5083054;28;20035;-82
2024/02/13 06:41:33;;;;;;;0.10;0.10;;;3.10;99.90;;;;;;5082499;28;20665;-82
2024/02/13 06:44:00;;;;;;;0.10;0.10;;;3.00;99.90;;;;;;5087715;28;20384;-79
2024/02/13 06:46:26;;;;;;;0.10;0.10;;;2.90;99.90;;;;;;5079412;28;20056;-82
2024/02/13 06:48:53;;;;;;;0.13;0.13;;;2.90;99.90;;;;;;5080747;28;20067;-85
2024/02/13 06:51:19;;;;;;;0.10;0.10;;;3.00;99.90;;;;;;5081949;28;20115;-81
2024/02/13 06:53:44;;;;;;;0.10;0.10;;;3.00;99.90;;;;;;5077971;28;20044;-81
2024/02/13 06:56:11;;;;;;;0.10;0.10;;;3.00;99.90;;;;;;5083573;28;20051;-80
2024/02/13 06:58:38;;;;;;;0.10;0.10;;;3.10;99.90;;;;;;5088480;28;20274;-82
2024/02/13 07:01:05;;;;;;;0.10;0.10;;;2.90;99.90;;;;;;5089252;28;20582;-81
2024/02/13 07:03:31;;;;;;;;;;;2.90;99.90;;;;;;5085538;28;20893;-80
2024/02/13 07:05:57;;;;;;;0.10;0.10;;;2.80;99.90;;;;;;5086959;28;19955;-81
2024/02/13 07:08:24;;;;;;;0.10;0.10;;;2.60;99.90;;;;;;5076550;28;20039;-82
2024/02/13 07:10:50;;;;;;;0.10;0.10;;;2.60;99.90;;;;;;5080895;28;20111;-78
2024/02/13 07:13:16;;;;;;;0.20;0.20;;;2.50;99.90;;;;;;5082025;28;20112;-79
2024/02/13 07:15:41;;;;;;;0.28;0.28;;;2.50;99.90;;;;;;5077180;28;20039;-82
2024/02/13 07:18:08;;;;;;;0.10;0.10;;;2.60;99.90;;;;;;5083529;28;20036;-81
2024/02/13 07:20:34;;;;;;;0.10;0.10;;;2.70;99.90;;;;;;5089293;28;20581;-81
2024/02/13 07:23:01;;;;;;;0.10;0.10;;;2.70;99.90;;;;;;5074559;28;20032;-79
2024/02/13 07:25:28;;;;;;;0.10;0.10;;;2.80;99.90;;;;;;5074363;28;20039;-79
2024/02/13 07:27:55;;;;;;;0.10;0.10;;;3.00;99.90;;;;;;5070871;28;20020;-79
2024/02/13 07:30:21;;;;;;;0.10;0.10;;;3.00;99.90;;;;;;5073241;28;20147;-79
2024/02/13 07:32:47;;;;;;;0.10;0.10;;;3.10;99.90;;;;;;5086976;28;20391;-78
2024/02/13 07:35:14;;;;;;;0.10;0.10;;;3.30;99.90;;;;;;5076915;28;20028;-78
2024/02/13 07:37:40;;;;;;;0.10;0.10;;;3.40;99.90;;;;;;5076869;28;20024;-79
2024/02/13 07:40:06;;;;;;;0.10;0.10;;;4.10;99.90;;;;;;5069800;28;20036;-79
2024/02/13 07:42:32;;;;;;;0.10;0.10;;;4.10;99.90;;;;;;5074923;28;20032;-80
2024/02/13 07:44:59;;;;;;;0.10;0.10;;;4.20;99.90;;;;;;5079969;28;20031;-78
2024/02/13 07:47:25;;;;;;;0.10;0.10;;;4.30;99.90;;;;;;5069504;28;20028;-78
2024/02/13 07:49:54;;;;;;;0.10;0.10;;;3.70;99.90;;;;;;5079711;28;20037;-79
2024/02/13 07:52:19;;;;;;;0.10;0.10;;;3.50;99.90;;;;;;5083830;28;20083;-79
2024/02/13 07:54:45;;;;;;;0.10;0.10;;;3.60;99.90;;;;;;5077410;28;20593;-78
2024/02/13 07:57:16;;;;;;;0.10;0.10;;;3.40;99.90;;;;;;5083584;28;20131;-78
2024/02/13 07:59:45;;;;;;;0.10;0.10;;;3.40;99.90;;;;;;5074395;28;20115;-79
2024/02/13 08:02:12;;;;;;;0.10;0.10;;;3.30;99.90;;;;;;5082034;28;20024;-78
2024/02/13 08:04:38;;;;;;;0.10;0.10;;;3.50;99.90;;;;;;5076796;28;20059;-78
2024/02/13 08:07:04;;;;;;;0.10;0.10;;;3.70;99.90;;;;;;5075177;28;20035;-79
2024/02/13 08:09:32;;;;;;;0.10;0.10;;;3.50;99.90;;;;;;5076629;28;20263;-78
2024/02/13 08:12:01;;;;;;;0.57;0.57;;;3.90;99.90;;;;;;5080822;28;20884;-78
2024/02/13 08:14:27;;;;;;;0.10;0.10;;;4.30;99.90;;;;;;5077806;28;20765;-78
2024/02/13 08:16:53;;;;;;;0.10;0.10;;;4.40;99.90;;;;;;5082782;28;20081;-78
2024/02/13 08:19:18;;;;;;;0.10;0.10;;;4.70;99.90;;;;;;5082101;28;20032;-79
2024/02/13 08:21:44;;;;;;;0.10;0.10;;;4.80;99.90;;;;;;5071281;28;20388;-79
2024/02/13 08:24:10;;;;;;;0.10;0.10;;;4.40;99.90;;;;;;5073441;28;20044;-78
2024/02/13 08:26:35;;;;;;;0.10;0.10;;;4.70;99.90;;;;;;5068323;28;20028;-78
2024/02/13 08:29:01;;;;;;;0.10;0.10;;;4.50;99.90;;;;;;5066714;28;20029;-79
2024/02/13 08:31:27;;;;;;;0.10;0.10;;;4.90;99.90;;;;;;5075884;28;20023;-79
2024/02/13 08:33:52;;;;;;;0.10;0.10;;;4.70;99.90;;;;;;5084213;28;20030;-77
2024/02/13 08:36:18;;;;;;;0.10;0.10;;;4.50;99.90;;;;;;5076989;28;20028;-77
2024/02/13 08:38:44;;;;;;;0.10;0.10;;;4.30;99.90;;;;;;5068292;28;20607;-78
2024/02/13 08:41:14;;;;;;;0.10;0.10;;;4.40;99.90;;;;;;5067255;28;20047;-78
2024/02/13 08:43:40;;;;;;;0.10;0.10;;;4.70;99.90;;;;;;5078693;28;20118;-78
2024/02/13 08:46:06;;;;;;;0.10;0.10;;;4.70;99.90;;;;;;5076769;28;20140;-78
2024/02/13 08:48:31;;;;;;;0.10;0.10;;;5.00;99.90;;;;;;5075091;28;20028;-78
2024/02/13 08:50:57;;;;;;;0.00;0.00;;;5.20;99.90;;;;;;5076710;28;20050;-78
2024/02/13 08:53:24;;;;;;;0.10;0.10;;;5.70;99.90;;;;;;5083795;28;20028;-78
2024/02/13 08:55:51;;;;;;;0.10;0.10;;;6.00;99.90;;;;;;5085283;28;20036;-78
2024/02/13 08:58:17;;;;;;;0.10;0.10;;;6.50;99.90;;;;;;5086532;28;20161;-78
2024/02/13 09:00:43;;;;;;;0.10;0.10;;;6.40;99.90;;;;;;5080754;28;20108;-79
2024/02/13 09:03:08;;;;;;;1.67;0.45;;;6.60;99.90;;;;;;5078684;28;20047;-79
2024/02/13 09:05:34;;;;;;;0.10;0.10;;;6.70;99.90;;;;;;5081910;28;20070;-78
2024/02/13 09:08:00;;;;;;;0.10;0.10;;;6.70;99.90;;;;;;5076208;28;20029;-79
2024/02/13 09:10:25;;;;;;;0.10;0.10;;;6.90;99.90;;;;;;5086266;28;20052;-79
2024/02/13 09:12:51;;;;;;;0.05;0.05;;;7.10;99.90;;;;;;5076596;28;20020;-78
2024/02/13 09:15:17;;;;;;;0.10;0.10;;;7.20;99.90;;;;;;5082222;28;20017;-79
2024/02/13 09:17:44;;;;;;;0.10;0.10;;;7.30;99.90;;;;;;5079911;28;20038;-79
2024/02/13 09:20:14;;;;;;;0.10;0.10;;;7.70;99.90;;;;;;5080383;28;20032;-80
2024/02/13 09:22:44;;;;;;;0.10;0.10;;;7.70;99.90;;;;;;5076584;28;20384;-79
2024/02/13 09:25:14;;;;;;;0.10;0.10;;;7.90;99.90;;;;;;5075730;28;20039;-79
2024/02/13 09:27:44;;;;;;;0.35;0.35;;;8.00;99.90;;;;;;5078527;28;20027;-80
2024/02/13 09:30:13;;;;;;;0.10;0.10;;;7.90;99.90;;;;;;5081940;28;20032;-80
2024/02/13 09:32:39;;;;;;;0.10;0.10;;;8.30;99.90;;;;;;5085411;28;20828;-79
2024/02/13 09:35:05;;;;;;;0.10;0.10;;;8.60;99.90;;;;;;5082216;28;20028;-80
2024/02/13 09:37:32;;;;;;;0.10;0.10;;;8.80;99.90;;;;;;5072491;28;20020;-80
2024/02/13 09:39:58;;;;;;;0.10;0.10;;;8.80;99.90;;;;;;5073614;28;20043;-80
2024/02/13 09:42:25;;;;;;;0.10;0.10;;;8.40;99.90;;;;;;5079120;28;20025;-79
2024/02/13 09:44:52;;;;;;;0.00;0.00;;;8.40;99.90;;;;;;5075581;28;20107;-79
2024/02/13 09:47:18;;;;;;;0.10;0.10;;;8.10;99.90;;;;;;5071258;28;20519;-80
2024/02/13 09:49:46;;;;;;;0.10;0.10;;;7.70;99.90;;;;;;5081875;28;20058;-80
2024/02/13 09:52:14;;;;;;;0.10;0.10;;;7.70;99.90;;;;;;5080862;28;20024;-80
2024/02/13 09:54:42;;;;;;;0.08;0.08;;;7.40;99.90;;;;;;5084745;28;20823;-80
2024/02/13 09:57:10;;;;;;;0.10;0.10;;;7.40;99.90;;;;;;5082717;28;20093;-80
2024/02/13 09:59:37;;;;;;;0.00;0.00;;;7.50;99.90;;;;;;5079914;28;20130;-80
2024/02/13 10:02:05;;;;;;;;;;;7.60;99.90;;;;;;5081160;28;20566;-80
2024/02/13 10:04:31;;;;;;;0.00;0.00;;;7.60;99.90;;;;;;5082866;28;19930;-80
2024/02/13 10:07:00;;;;;;;0.10;0.10;;;7.70;99.90;;;;;;5087766;28;20024;-80
2024/02/13 10:09:29;;;;;;;0.08;0.08;;;8.10;99.90;;;;;;5076523;28;20132;-80
2024/02/13 10:11:55;;;;;;;0.10;0.10;;;7.90;99.90;;;;;;5078253;28;20412;-80
2024/02/13 10:14:24;;;;;;;0.00;0.00;;;8.00;99.90;;;;;;5086642;28;20465;-80
2024/02/13 10:16:50;;;;;;;0.10;0.10;;;7.90;99.90;;;;;;5083742;28;20031;-80
2024/02/13 10:19:20;;;;;;;0.10;0.10;;;8.20;99.90;;;;;;5082482;28;20740;-80
2024/02/13 10:21:49;;;;;;;0.00;0.00;;;8.60;99.90;;;;;;5075436;28;20082;-80
2024/02/13 10:24:15;;;;;;;0.00;0.00;;;8.90;99.90;;;;;;5073807;28;20032;-80
2024/02/13 10:26:41;;;;;;;0.10;0.10;;;9.10;99.90;;;;;;5070232;28;20034;-80
2024/02/13 10:29:07;;;;;;;0.10;0.10;;;9.10;99.90;;;;;;5075353;28;20028;-80
2024/02/13 10:31:37;;;;;;;0.00;0.00;;;9.00;99.90;;;;;;5085903;28;20019;-79
2024/02/13 10:34:04;;;;;;;0.38;0.38;;;9.10;99.90;;;;;;5085603;28;20134;-79
2024/02/13 10:36:36;;;;;;;0.00;0.00;;;8.80;99.90;;;;;;5080907;28;20073;-80
2024/02/13 10:39:03;;;;;;;0.05;0.05;;;8.80;99.90;;;;;;5073549;28;20028;-80
2024/02/13 10:41:33;;;;;;;0.17;0.17;;;9.00;99.90;;;;;;5072890;28;20488;-81
2024/02/13 10:43:59;;;;;;;0.10;0.10;;;9.00;99.90;;;;;;5087397;28;20457;-80
2024/02/13 10:46:28;;;;;;;0.10;0.10;;;8.60;99.90;;;;;;5072449;28;20025;-80
2024/02/13 10:49:22;;;;;;;0.10;0.10;;;9.10;99.90;;;;;;5075063;28;20029;-80
2024/02/13 10:51:49;;;;;;;0.05;0.05;;;10.60;99.90;;;;;;5072472;28;20036;-80
2024/02/13 10:54:15;;;;;;;;;;;10.60;99.90;;;;;;5073124;28;20051;-80
2024/02/13 10:56:41;;;;;;;0.10;0.10;;;10.10;99.90;;;;;;5076847;28;19920;-80
2024/02/13 10:59:08;;;;;;;0.10;0.10;;;9.70;99.90;;;;;;5076379;28;20043;-80
2024/02/13 11:01:34;;;;;;;0.00;0.00;;;9.30;99.90;;;;;;5077349;28;20863;-80
2024/02/13 11:04:02;;;;;;;0.22;0.22;;;9.30;99.90;;;;;;5078963;28;20067;-80
2024/02/13 11:06:28;;;;;;;0.10;0.10;;;9.40;99.90;;;;;;5083502;28;20029;-80
2024/02/13 11:08:54;;;;;;;0.10;0.10;;;9.40;99.90;;;;;;5084386;28;20017;-80
2024/02/13 11:11:23;;;;;;;0.10;0.10;;;9.60;99.90;;;;;;5082881;28;20060;-80
2024/02/13 11:13:49;;;;;;;0.10;0.10;;;9.50;99.90;;;;;;5075031;28;20108;-80
2024/02/13 11:16:15;;;;;;;0.10;0.10;;;9.40;99.90;;;;;;5080447;28;20024;-80
2024/02/13 11:18:48;;;;;;;0.05;0.05;;;9.30;99.90;;;;;;5072804;28;20178;-80
2024/02/13 11:21:24;;;;;;;0.10;0.10;;;9.30;99.90;;;;;;5079822;28;20039;-79
2024/02/13 11:23:59;;;;;;;0.03;0.03;;;9.30;99.90;;;;;;5068521;28;20607;-79
2024/02/13 11:26:34;;;;;;;0.10;0.10;;;9.30;99.90;;;;;;5073252;28;20046;-80
2024/02/13 11:29:14;;;;;;;0.32;0.32;;;9.40;99.90;;;;;;5075745;28;20021;-80
2024/02/13 11:31:40;;;;;;;0.10;0.10;;;9.40;99.90;;;;;;5068286;28;20020;-80
2024/02/13 11:34:13;;;;;;;0.10;0.10;;;9.40;99.90;;;;;;5091213;28;20027;-79
2024/02/13 11:36:39;;;;;;;0.10;0.10;;;9.50;99.90;;;;;;5069359;28;20082;-80
2024/02/13 11:39:06;;;;;;;0.10;0.10;;;9.40;99.90;;;;;;5071324;28;20036;-79
2024/02/13 11:41:34;;;;;;;0.10;0.10;;;9.30;99.90;;;;;;5070257;28;20073;-80
2024/02/13 11:44:11;;;;;;;0.10;0.10;;;9.20;99.90;;;;;;5068779;28;20119;-80
2024/02/13 11:46:54;;;;;;;0.10;0.10;;;9.20;99.90;;;;;;5066740;28;20074;-79
2024/02/13 11:49:21;;;;;;;0.00;0.00;;;9.20;99.90;;;;;;5072579;28;20028;-81
2024/02/13 11:51:47;;;;;;;0.10;0.10;;;9.20;99.90;;;;;;5082576;28;20020;-80
2024/02/13 11:54:13;;;;;;;0.00;0.00;;;9.20;99.90;;;;;;5076407;28;20865;-80
2024/02/13 11:56:39;;;;;;;0.10;0.10;;;9.30;99.90;;;;;;5088743;28;20056;-80
2024/02/13 11:59:06;;;;;;;0.00;0.00;;;9.20;99.90;;;;;;5075913;28;20736;-80
2024/02/13 12:01:37;;;;;;;0.15;0.15;;;9.30;99.90;;;;;;5083094;28;20031;-80
2024/02/13 12:04:11;;;;;;;0.00;0.00;;;9.00;99.90;;;;;;5081885;28;20032;-80
2024/02/13 12:06:38;;;;;;;0.00;0.00;;;9.00;99.90;;;;;;5084639;28;20119;-80
2024/02/13 12:09:07;;;;;;;0.10;0.10;;;9.00;99.90;;;;;;5078429;28;20029;-80
2024/02/13 12:11:35;;;;;;;0.10;0.10;;;9.00;99.90;;;;;;5084439;28;20024;-80
2024/02/13 12:14:03;;;;;;;5.80;2.30;;;9.10;99.90;;;;;;5078772;28;20024;-80
2024/02/13 12:16:32;;;;;;;0.25;0.25;;;9.10;99.90;;;;;;5086897;28;20043;-80
2024/02/13 12:18:59;;;;;;;0.10;0.10;;;9.10;99.90;;;;;;5085175;28;20049;-80
2024/02/13 12:21:26;;;;;;;0.00;0.00;;;9.10;99.90;;;;;;5082950;28;20016;-80
2024/02/13 12:23:53;;;;;;;0.10;0.10;;;9.00;99.90;;;;;;5081386;28;20054;-80
2024/02/13 12:26:19;;;;;;;0.10;0.10;;;9.10;99.90;;;;;;5074216;28;20034;-80
2024/02/13 12:28:58;;;;;;;0.10;0.10;;;9.10;99.90;;;;;;5072046;28;20029;-80
2024/02/13 12:31:24;;;;;;;0.00;0.00;;;9.20;99.90;;;;;;5075127;28;20025;-80
2024/02/13 12:34:05;;;;;;;0.00;0.00;;;9.00;99.90;;;;;;5068960;28;20101;-80
2024/02/13 12:36:31;;;;;;;0.10;0.10;;;9.10;99.90;;;;;;5081673;28;20028;-80
2024/02/13 12:39:13;;;;;;;0.00;0.00;;;9.20;99.90;;;;;;5071957;28;20028;-80
2024/02/13 12:41:39;;;;;;;0.00;0.00;;;9.20;99.90;;;;;;5075166;28;20028;-80
2024/02/13 12:44:04;;;;;;;0.00;0.00;;;9.20;99.90;;;;;;5074011;28;20475;-79
2024/02/13 12:46:34;;;;;;;0.10;0.10;;;9.20;99.90;;;;;;5081351;28;20069;-80
2024/02/13 12:49:01;;;;;;;0.10;0.10;;;9.20;99.90;;;;;;5077003;28;20028;-80
2024/02/13 12:51:31;;;;;;;0.10;0.10;;;9.20;99.90;;;;;;5081174;28;20020;-80
2024/02/13 12:53:57;;;;;;;0.10;0.10;;;9.20;99.90;;;;;;5078795;28;20039;-80
2024/02/13 12:56:24;;;;;;;0.00;0.00;;;9.30;99.90;;;;;;5092435;28;20040;-80
2024/02/13 12:58:52;;;;;;;0.10;0.10;;;9.20;99.90;;;;;;5086729;28;20028;-80
2024/02/13 13:01:22;;;;;;;0.10;0.10;;;9.20;99.90;;;;;;5089717;28;20055;-80